Terminal Aerodrome Forecast
Issued by NWS Columbia, SC

Home | Current Version | Previous Version | Text Only | Print | Product List | Glossary On
Versions: 1 2 3 4 5 6 7 8 9 10 11 12 13 14 15 16 17 18 19 20 21 22 23 24 25 26 27 28 29 30
000
FTUS42 KCAE 232000 AAA
TAFCAE
TAF AMD
KCAE 232031Z 2321/2418 23006KT P6SM SCT035 BKN090
     FM240100 VRB03KT P6SM SCT035 BKN120
     FM240900 VRB03KT P6SM SCT010 SCT150
     FM241300 25009KT P6SM SCT040 SCT250=

USA.gov is the U.S. government's official web portal to all federal, state and local government web resources and services.